Time;durP1;ratioP1;P1;durP2;ratioP2;P2;SDS_P1;SDS_P2;PMS_P1;PMS_P2;Temp;Humidity;BMP_temperature;BMP_pressure;BME280_temperature;BME280_humidity;BME280_pressure;Samples;Min_cycle;Max_cycle;Signal;HPM_P1;HPM_P2
2024/01/08 00:00:51;;;;;;;2.50;2.30;;;0.60;99.90;;;;;;5071577;28;20328;-62
2024/01/08 00:03:19;;;;;;;3.45;3.25;;;0.60;99.90;;;;;;5071786;28;20535;-63
2024/01/08 00:05:46;;;;;;;3.83;3.53;;;0.70;99.90;;;;;;5071559;28;20289;-63
2024/01/08 00:08:14;;;;;;;3.40;2.72;;;0.60;99.90;;;;;;5071199;28;20229;-63
2024/01/08 00:10:41;;;;;;;2.90;2.70;;;0.60;99.90;;;;;;5071203;28;20228;-63
2024/01/08 00:13:08;;;;;;;2.78;2.58;;;0.60;99.90;;;;;;5071778;28;20671;-62
2024/01/08 00:15:35;;;;;;;2.53;2.30;;;0.60;99.90;;;;;;5071431;28;20300;-62
2024/01/08 00:18:02;;;;;;;1.75;1.65;;;0.60;99.90;;;;;;5071653;28;20744;-63
2024/01/08 00:20:30;;;;;;;2.83;2.63;;;0.60;99.90;;;;;;5071221;28;20232;-62
2024/01/08 00:22:57;;;;;;;3.47;3.25;;;0.50;99.90;;;;;;5070917;28;20205;-63
2024/01/08 00:25:24;;;;;;;3.17;2.63;;;0.50;99.90;;;;;;5071616;28;20293;-63
2024/01/08 00:27:51;;;;;;;3.15;2.45;;;0.50;99.90;;;;;;5071512;28;20222;-63
2024/01/08 00:30:18;;;;;;;2.38;2.17;;;0.60;99.90;;;;;;5070714;28;20225;-63
2024/01/08 00:32:45;;;;;;;2.55;2.35;;;0.60;99.90;;;;;;5070289;28;20653;-63
2024/01/08 00:35:12;;;;;;;2.60;2.40;;;0.50;99.90;;;;;;5070656;28;20202;-63
2024/01/08 00:37:41;;;;;;;3.15;2.95;;;0.50;99.90;;;;;;5071185;28;20210;-62
2024/01/08 00:40:09;;;;;;;2.40;2.00;;;0.50;99.90;;;;;;5070603;28;20217;-63
2024/01/08 00:42:36;;;;;;;4.13;3.10;;;0.50;99.90;;;;;;5070928;28;20209;-63
2024/01/08 00:45:02;;;;;;;3.72;2.75;;;0.50;99.90;;;;;;5071141;28;20683;-61
2024/01/08 00:47:29;;;;;;;3.67;3.47;;;0.50;99.90;;;;;;5070822;28;20197;-63
2024/01/08 00:49:56;;;;;;;3.40;3.10;;;0.50;99.90;;;;;;5070977;28;20675;-63
2024/01/08 00:52:23;;;;;;;2.65;2.45;;;0.60;99.90;;;;;;5071079;28;20296;-63
2024/01/08 00:54:51;;;;;;;3.58;3.35;;;0.50;99.90;;;;;;5071209;28;20283;-63
2024/01/08 00:57:18;;;;;;;3.28;3.08;;;0.60;99.90;;;;;;5071259;28;20296;-62
2024/01/08 00:59:45;;;;;;;2.65;2.55;;;0.50;99.90;;;;;;5070617;28;20672;-63
2024/01/08 01:02:12;;;;;;;3.40;2.60;;;0.50;99.90;;;;;;5094438;22;20226;-58
2024/01/08 01:04:39;;;;;;;2.90;2.70;;;0.50;99.90;;;;;;5071019;28;20210;-57
2024/01/08 01:07:06;;;;;;;2.60;2.42;;;0.50;99.90;;;;;;5070992;28;20205;-58
2024/01/08 01:09:33;;;;;;;2.47;2.28;;;0.50;99.90;;;;;;5070490;28;20605;-59
2024/01/08 01:12:01;;;;;;;3.42;2.78;;;0.50;99.90;;;;;;5070883;28;20233;-57
2024/01/08 01:14:28;;;;;;;4.10;3.80;;;0.40;99.90;;;;;;5070709;28;20248;-58
2024/01/08 01:16:55;;;;;;;2.40;2.30;;;0.40;99.90;;;;;;5065247;28;20212;-58
2024/01/08 01:19:22;;;;;;;2.90;2.65;;;0.40;99.90;;;;;;5062185;28;20202;-59
2024/01/08 01:21:49;;;;;;;2.55;2.35;;;0.50;99.90;;;;;;5069848;28;20230;-57
2024/01/08 01:24:15;;;;;;;2.22;2.00;;;0.50;99.90;;;;;;5070461;28;20354;-60
2024/01/08 01:26:42;;;;;;;2.40;2.25;;;0.40;99.90;;;;;;5070069;28;20201;-59
2024/01/08 01:29:11;;;;;;;2.63;2.42;;;0.40;99.90;;;;;;5070324;28;20226;-58
2024/01/08 01:31:37;;;;;;;3.08;2.88;;;0.40;99.90;;;;;;5070629;28;20225;-56
2024/01/08 01:34:05;;;;;;;2.65;2.45;;;0.40;99.90;;;;;;5070774;28;20713;-58
2024/01/08 01:36:35;;;;;;;2.80;2.60;;;0.40;99.90;;;;;;5070977;28;20202;-58
2024/01/08 01:39:02;;;;;;;2.70;2.47;;;0.40;99.90;;;;;;5070407;28;20201;-59
2024/01/08 01:41:29;;;;;;;2.33;2.15;;;0.40;99.90;;;;;;5070351;28;20249;-59
2024/01/08 01:43:56;;;;;;;2.38;2.20;;;0.40;99.90;;;;;;5070674;28;20205;-57
2024/01/08 01:46:28;;;;;;;1.85;1.75;;;0.40;99.90;;;;;;5073496;28;20220;-57
2024/01/08 01:48:55;;;;;;;2.13;2.00;;;0.40;99.90;;;;;;5074333;28;20258;-56
2024/01/08 01:51:22;;;;;;;2.10;1.90;;;0.30;99.90;;;;;;5073769;28;20309;-56
2024/01/08 01:53:49;;;;;;;2.88;2.45;;;0.40;99.90;;;;;;5074226;28;20216;-57
2024/01/08 01:56:16;;;;;;;2.03;1.92;;;0.30;99.90;;;;;;5073809;28;20340;-57
2024/01/08 01:58:44;;;;;;;1.70;1.60;;;0.30;99.90;;;;;;5073986;28;20285;-59
2024/01/08 02:01:13;;;;;;;3.15;2.53;;;0.20;99.90;;;;;;5060355;28;20283;-55
2024/01/08 02:03:42;;;;;;;2.95;2.75;;;0.30;99.90;;;;;;5074316;28;20285;-61
2024/01/08 02:06:12;;;;;;;2.65;1.80;;;0.30;99.90;;;;;;5070878;28;20220;-57
2024/01/08 02:08:40;;;;;;;1.80;1.70;;;0.30;99.90;;;;;;5073812;28;20586;-59
2024/01/08 02:11:06;;;;;;;3.00;2.15;;;0.30;99.90;;;;;;5073048;28;20320;-55
2024/01/08 02:13:33;;;;;;;1.95;1.85;;;0.30;99.90;;;;;;5073976;28;20202;-58
2024/01/08 02:16:00;;;;;;;2.60;2.40;;;0.30;99.90;;;;;;5073859;28;20727;-58
2024/01/08 02:18:30;;;;;;;2.40;2.20;;;0.20;99.90;;;;;;5073847;28;20205;-58
2024/01/08 02:20:58;;;;;;;2.20;2.10;;;0.30;99.90;;;;;;5073757;28;20316;-59
2024/01/08 02:23:26;;;;;;;2.50;2.30;;;0.20;99.90;;;;;;5073983;28;20296;-55
2024/01/08 02:25:53;;;;;;;2.95;2.75;;;0.30;99.90;;;;;;5073903;28;20220;-58
2024/01/08 02:28:20;;;;;;;3.08;2.88;;;0.30;99.90;;;;;;5074005;28;20669;-57
2024/01/08 02:30:47;;;;;;;2.80;2.60;;;0.30;99.90;;;;;;5073814;28;20234;-60
2024/01/08 02:33:14;;;;;;;2.80;2.60;;;0.30;99.90;;;;;;5073838;28;20209;-58
2024/01/08 02:35:41;;;;;;;3.17;2.88;;;0.30;99.90;;;;;;5073905;28;20647;-57
2024/01/08 02:38:08;;;;;;;2.80;2.60;;;0.30;99.90;;;;;;5073725;28;20292;-58
2024/01/08 02:40:36;;;;;;;3.08;2.88;;;0.40;99.90;;;;;;5073641;28;20230;-57
2024/01/08 02:43:04;;;;;;;3.15;2.85;;;0.40;99.90;;;;;;5073554;28;20228;-58
2024/01/08 02:45:32;;;;;;;3.03;2.83;;;0.40;99.90;;;;;;5073517;28;20754;-60
2024/01/08 02:47:58;;;;;;;3.20;2.85;;;0.40;99.90;;;;;;5073593;28;20297;-60
2024/01/08 02:50:25;;;;;;;2.95;2.75;;;0.40;99.90;;;;;;5073221;28;20257;-59
2024/01/08 02:52:52;;;;;;;2.47;2.28;;;0.40;99.90;;;;;;5073347;28;20206;-57
2024/01/08 02:55:19;;;;;;;2.70;2.55;;;0.40;99.90;;;;;;5073567;28;20579;-59
2024/01/08 02:57:47;;;;;;;3.70;3.10;;;0.40;99.90;;;;;;5072470;28;20232;-59
2024/01/08 03:00:15;;;;;;;3.60;3.40;;;0.40;99.90;;;;;;5073321;28;20206;-59
2024/01/08 03:02:42;;;;;;;3.33;3.13;;;0.50;99.90;;;;;;5073237;28;20232;-59
2024/01/08 03:05:09;;;;;;;3.30;2.90;;;0.40;99.90;;;;;;5073144;28;20216;-59
2024/01/08 03:07:36;;;;;;;2.85;2.65;;;0.40;99.90;;;;;;5073019;28;20201;-58
2024/01/08 03:10:03;;;;;;;3.50;3.28;;;0.40;99.90;;;;;;5073056;28;20235;-60
2024/01/08 03:12:30;;;;;;;3.67;3.38;;;0.40;99.90;;;;;;5072699;28;20742;-59
2024/01/08 03:14:58;;;;;;;3.25;2.95;;;0.40;99.90;;;;;;5072829;28;20301;-57
2024/01/08 03:17:25;;;;;;;3.10;2.90;;;0.40;99.90;;;;;;5072587;28;20212;-59
2024/01/08 03:19:52;;;;;;;4.03;3.53;;;0.40;99.90;;;;;;5072731;28;20210;-58
2024/01/08 03:22:19;;;;;;;2.92;2.72;;;0.50;99.90;;;;;;5072626;28;20229;-59
2024/01/08 03:24:46;;;;;;;3.85;3.50;;;0.40;99.90;;;;;;5072398;28;20743;-59
2024/01/08 03:27:12;;;;;;;4.13;3.83;;;0.50;99.90;;;;;;5072843;28;20206;-58
2024/01/08 03:29:39;;;;;;;4.32;4.03;;;0.50;99.90;;;;;;5072364;28;20645;-58
2024/01/08 03:32:09;;;;;;;3.03;2.80;;;0.50;99.90;;;;;;5072378;28;20230;-58
2024/01/08 03:34:36;;;;;;;3.60;2.95;;;0.50;99.90;;;;;;5072528;28;20209;-58
2024/01/08 03:37:02;;;;;;;4.40;4.13;;;0.50;99.90;;;;;;5072702;28;20208;-60
2024/01/08 03:39:30;;;;;;;2.83;2.63;;;0.50;99.90;;;;;;5072240;28;20690;-58
2024/01/08 03:41:56;;;;;;;3.08;2.85;;;0.50;99.90;;;;;;5072357;28;20229;-60
2024/01/08 03:44:24;;;;;;;3.13;2.67;;;0.50;99.90;;;;;;5071768;28;20292;-57
2024/01/08 03:46:51;;;;;;;2.60;2.40;;;0.50;99.90;;;;;;5072232;28;20213;-58
2024/01/08 03:49:19;;;;;;;2.50;2.35;;;0.50;99.90;;;;;;5071291;28;20290;-57
2024/01/08 03:51:46;;;;;;;2.13;2.03;;;0.40;99.90;;;;;;5071188;28;20222;-60
2024/01/08 03:54:13;;;;;;;3.22;3.03;;;0.40;99.90;;;;;;5072217;28;20292;-56
2024/01/08 03:56:40;;;;;;;2.97;2.78;;;0.50;99.90;;;;;;5072317;28;20585;-59
2024/01/08 03:59:07;;;;;;;2.45;2.33;;;0.40;99.90;;;;;;5071935;28;20229;-58
2024/01/08 04:01:34;;;;;;;2.05;1.95;;;0.40;99.90;;;;;;5071789;28;20743;-59
2024/01/08 04:04:01;;;;;;;2.92;2.40;;;0.30;99.90;;;;;;5072044;28;20221;-58
2024/01/08 04:06:29;;;;;;;2.80;2.60;;;0.30;99.90;;;;;;5072352;28;20570;-56
2024/01/08 04:08:56;;;;;;;2.30;2.20;;;0.40;99.90;;;;;;5070808;28;20222;-58
2024/01/08 04:11:23;;;;;;;3.75;3.45;;;0.30;99.90;;;;;;5071723;28;20229;-60
2024/01/08 04:13:50;;;;;;;3.45;2.90;;;0.40;99.90;;;;;;5071826;28;20201;-59
2024/01/08 04:16:16;;;;;;;2.60;2.40;;;0.40;99.90;;;;;;5071690;28;20202;-60
2024/01/08 04:18:43;;;;;;;2.40;2.17;;;0.40;99.90;;;;;;5070481;28;20301;-58
2024/01/08 04:21:10;;;;;;;3.20;2.90;;;0.40;99.90;;;;;;5071849;28;20557;-59
2024/01/08 04:23:39;;;;;;;2.47;2.28;;;0.40;99.90;;;;;;5071767;28;20241;-57
2024/01/08 04:26:06;;;;;;;3.25;2.95;;;0.40;99.90;;;;;;5071768;28;20565;-58
2024/01/08 04:28:33;;;;;;;3.00;2.80;;;0.40;99.90;;;;;;5071794;28;20212;-60
2024/01/08 04:30:59;;;;;;;2.80;2.60;;;0.40;99.90;;;;;;5071213;28;20730;-59
2024/01/08 04:33:26;;;;;;;3.50;3.20;;;0.40;99.90;;;;;;5071875;28;20205;-59
2024/01/08 04:35:53;;;;;;;3.38;2.70;;;0.40;99.90;;;;;;5071645;28;20672;-57
2024/01/08 04:38:20;;;;;;;5.07;3.05;;;0.30;99.90;;;;;;5071636;28;20205;-59
2024/01/08 04:40:48;;;;;;;3.38;3.08;;;0.30;99.90;;;;;;5071326;28;20222;-57
2024/01/08 04:43:15;;;;;;;3.20;3.00;;;0.30;99.90;;;;;;5071621;28;20206;-60
2024/01/08 04:45:42;;;;;;;3.25;3.05;;;0.30;99.90;;;;;;5071385;28;20208;-58
2024/01/08 04:48:09;;;;;;;3.03;2.83;;;0.30;99.90;;;;;;5071696;28;20670;-59
2024/01/08 04:50:36;;;;;;;4.10;3.80;;;0.30;99.90;;;;;;5071340;28;20231;-59
2024/01/08 04:53:02;;;;;;;5.07;4.45;;;0.30;99.90;;;;;;5071592;28;20629;-58
2024/01/08 04:55:29;;;;;;;4.80;3.63;;;0.30;99.90;;;;;;5071714;28;20208;-59
2024/01/08 04:57:57;;;;;;;2.97;2.78;;;0.30;99.90;;;;;;5071565;28;20864;-57
2024/01/08 05:00:24;;;;;;;3.35;3.15;;;0.30;99.90;;;;;;5071179;28;20201;-60
2024/01/08 05:02:51;;;;;;;3.45;3.17;;;0.30;99.90;;;;;;5071617;28;20205;-58
2024/01/08 05:05:18;;;;;;;6.13;4.38;;;0.30;99.90;;;;;;5071522;28;20391;-59
2024/01/08 05:07:45;;;;;;;3.25;2.95;;;0.30;99.90;;;;;;5071473;28;20714;-60
2024/01/08 05:10:12;;;;;;;5.15;3.47;;;0.30;99.90;;;;;;5071110;28;20232;-59
2024/01/08 05:12:38;;;;;;;4.07;3.75;;;0.30;99.90;;;;;;5071169;28;20711;-59
2024/01/08 05:15:08;;;;;;;3.80;3.50;;;0.30;99.90;;;;;;5071396;28;20201;-59
2024/01/08 05:17:34;;;;;;;3.72;3.38;;;0.30;99.90;;;;;;5071394;28;20215;-59
2024/01/08 05:20:01;;;;;;;3.90;3.53;;;0.20;99.90;;;;;;5072436;28;20644;-62
2024/01/08 05:22:29;;;;;;;4.07;3.78;;;0.20;99.90;;;;;;5075117;28;20271;-59
2024/01/08 05:24:56;;;;;;;6.00;3.85;;;0.20;99.90;;;;;;5075133;28;20216;-56
2024/01/08 05:27:23;;;;;;;4.00;3.70;;;0.10;99.90;;;;;;5074948;28;20209;-58
2024/01/08 05:29:50;;;;;;;5.60;3.28;;;0.10;99.90;;;;;;5074955;28;20229;-60
2024/01/08 05:32:18;;;;;;;3.33;3.13;;;0.00;99.90;;;;;;5075079;28;20627;-58
2024/01/08 05:34:45;;;;;;;3.35;3.15;;;0.00;99.90;;;;;;5074887;28;20681;-61
2024/01/08 05:37:12;;;;;;;3.45;3.17;;;0.00;99.90;;;;;;5074860;28;20209;-60
2024/01/08 05:39:38;;;;;;;3.50;3.20;;;0.00;99.90;;;;;;5074531;28;20202;-58
2024/01/08 05:42:05;;;;;;;3.03;2.83;;;-0.10;99.90;;;;;;5074982;28;20325;-59
2024/01/08 05:44:32;;;;;;;3.97;3.67;;;-0.10;99.90;;;;;;5074607;28;20202;-60
2024/01/08 05:46:59;;;;;;;3.20;2.90;;;-0.10;99.90;;;;;;5074868;28;20208;-59
2024/01/08 05:49:27;;;;;;;4.00;3.58;;;0.00;99.90;;;;;;5074294;28;20228;-60
2024/01/08 05:51:54;;;;;;;3.97;3.67;;;-0.10;99.90;;;;;;5074611;28;20608;-60
2024/01/08 05:54:21;;;;;;;4.78;2.90;;;-0.10;99.90;;;;;;5074705;28;20208;-60
2024/01/08 05:56:48;;;;;;;3.70;3.45;;;-0.10;99.90;;;;;;5074728;28;20605;-60
2024/01/08 05:59:13;;;;;;;2.92;2.72;;;-0.20;99.90;;;;;;5074339;28;20202;-61
2024/01/08 06:01:42;;;;;;;2.97;2.60;;;-0.20;99.90;;;;;;5074003;28;20321;-61
2024/01/08 06:04:10;;;;;;;3.28;3.08;;;-0.20;99.90;;;;;;5074334;28;20961;-61
2024/01/08 06:06:38;;;;;;;3.83;3.40;;;-0.20;99.90;;;;;;5073927;28;20198;-58
2024/01/08 06:09:06;;;;;;;3.60;3.40;;;-0.30;99.90;;;;;;5073128;28;20205;-59
2024/01/08 06:11:33;;;;;;;2.92;2.72;;;-0.30;99.90;;;;;;5073656;28;20300;-60
2024/01/08 06:13:59;;;;;;;4.38;4.05;;;-0.30;99.90;;;;;;5073475;28;20293;-60
2024/01/08 06:16:30;;;;;;;3.97;2.75;;;-0.30;99.90;;;;;;5073506;28;20202;-60
2024/01/08 06:18:57;;;;;;;2.80;2.60;;;-0.30;99.90;;;;;;5073221;28;20304;-59
2024/01/08 06:21:24;;;;;;;3.08;2.78;;;-0.30;99.90;;;;;;5074133;28;20222;-60
2024/01/08 06:23:52;;;;;;;3.72;2.78;;;-0.30;99.90;;;;;;5074059;28;20622;-59
2024/01/08 06:26:19;;;;;;;2.88;2.67;;;-0.30;99.90;;;;;;5073980;28;20698;-60
2024/01/08 06:28:46;;;;;;;3.45;3.25;;;-0.20;99.90;;;;;;5073806;28;20244;-61
2024/01/08 06:31:13;;;;;;;3.10;2.78;;;-0.30;99.90;;;;;;5072515;28;20226;-58
2024/01/08 06:33:41;;;;;;;2.60;2.40;;;-0.30;99.90;;;;;;5073941;28;20640;-61
2024/01/08 06:36:08;;;;;;;4.85;3.65;;;-0.30;99.90;;;;;;5073713;28;20211;-61
2024/01/08 06:38:35;;;;;;;3.70;3.40;;;-0.40;99.90;;;;;;5073534;28;20591;-60
2024/01/08 06:41:04;;;;;;;3.33;3.03;;;-0.40;99.90;;;;;;5073489;28;20225;-61
2024/01/08 06:43:31;;;;;;;2.53;2.33;;;-0.50;99.90;;;;;;5073614;28;20209;-60
2024/01/08 06:45:57;;;;;;;2.75;2.47;;;-0.50;99.90;;;;;;5073730;28;20688;-59
2024/01/08 06:48:25;;;;;;;3.28;3.03;;;-0.60;99.90;;;;;;5073155;28;20686;-60
2024/01/08 06:50:52;;;;;;;3.10;2.72;;;-0.70;99.90;;;;;;5072747;28;20226;-57
2024/01/08 06:53:18;;;;;;;2.80;2.60;;;-0.70;99.90;;;;;;5070449;28;20213;-61
2024/01/08 06:55:45;;;;;;;6.68;3.42;;;-0.70;99.90;;;;;;5072424;28;20747;-57
2024/01/08 06:58:14;;;;;;;3.45;3.15;;;-0.80;99.90;;;;;;5072640;28;20210;-59
2024/01/08 07:03:13;;;;;;;5.20;3.17;;;-0.90;99.90;;;;;;5087329;28;20205;-62
2024/01/08 07:05:40;;;;;;;5.57;4.07;;;-0.90;99.90;;;;;;5083411;28;20225;-63
2024/01/08 07:08:07;;;;;;;3.15;2.97;;;-0.90;99.90;;;;;;5081309;28;20605;-63
2024/01/08 07:10:34;;;;;;;4.45;4.10;;;-0.90;99.90;;;;;;5091232;28;20228;-63
2024/01/08 07:13:01;;;;;;;3.38;3.15;;;-1.00;99.90;;;;;;5093127;28;20311;-63
2024/01/08 07:15:40;;;;;;;3.65;3.33;;;-1.00;99.90;;;;;;5093237;28;20295;-63
2024/01/08 07:18:09;;;;;;;4.05;3.75;;;-1.00;99.90;;;;;;5093772;28;20227;-63
2024/01/08 07:20:37;;;;;;;3.85;3.10;;;-1.10;99.90;;;;;;5092878;28;20197;-63
2024/01/08 07:23:04;;;;;;;5.75;3.25;;;-1.10;99.90;;;;;;5092307;28;20203;-63
2024/01/08 07:25:31;;;;;;;3.97;3.67;;;-1.10;99.90;;;;;;5084856;28;20201;-63
2024/01/08 07:27:59;;;;;;;3.22;2.88;;;-1.20;99.90;;;;;;5089890;28;20204;-63
2024/01/08 07:30:26;;;;;;;4.88;3.50;;;-1.30;99.90;;;;;;5092942;28;20316;-63
2024/01/08 07:32:55;;;;;;;3.83;2.95;;;-1.30;99.90;;;;;;5092854;28;20235;-62
2024/01/08 07:35:22;;;;;;;3.88;3.20;;;-1.30;99.90;;;;;;5093136;28;20300;-63
2024/01/08 07:37:54;;;;;;;3.58;3.25;;;-1.30;99.90;;;;;;5093034;28;20209;-62
2024/01/08 07:40:21;;;;;;;4.07;3.65;;;-1.40;99.90;;;;;;5092525;28;20300;-63
2024/01/08 07:42:48;;;;;;;4.25;3.75;;;-1.40;99.90;;;;;;5092464;28;20229;-62
2024/01/08 07:45:15;;;;;;;7.53;5.32;;;-1.50;99.90;;;;;;5092889;28;20212;-62
2024/01/08 07:47:42;;;;;;;3.53;3.28;;;-1.40;99.90;;;;;;5092791;28;20300;-63
2024/01/08 07:50:10;;;;;;;4.45;4.13;;;-1.50;99.90;;;;;;5092433;28;20789;-63
2024/01/08 07:52:37;;;;;;;4.32;3.58;;;-1.50;99.90;;;;;;5092584;28;20228;-63
2024/01/08 07:55:04;;;;;;;3.75;3.45;;;-1.50;99.90;;;;;;5092474;28;20207;-62
2024/01/08 07:57:31;;;;;;;4.63;3.75;;;-1.50;99.90;;;;;;5092651;28;20632;-62
2024/01/08 07:59:58;;;;;;;4.10;3.80;;;-1.50;99.90;;;;;;5092369;28;20211;-63
2024/01/08 08:02:25;;;;;;;4.35;3.95;;;-1.60;99.90;;;;;;5092404;28;20236;-63
2024/01/08 08:04:53;;;;;;;3.65;3.30;;;-1.60;99.90;;;;;;5092409;28;20204;-63
2024/01/08 08:07:21;;;;;;;5.55;3.30;;;-1.60;99.90;;;;;;5092414;28;20296;-62
2024/01/08 08:09:48;;;;;;;4.18;3.85;;;-1.70;99.90;;;;;;5092213;28;20301;-62
2024/01/08 08:12:15;;;;;;;5.22;3.97;;;-1.70;99.90;;;;;;5092335;28;20316;-62
2024/01/08 08:14:43;;;;;;;5.00;4.00;;;-1.70;99.90;;;;;;5092177;28;20201;-62
2024/01/08 08:17:10;;;;;;;5.35;4.88;;;-1.70;99.90;;;;;;5092227;28;20212;-62
2024/01/08 08:19:37;;;;;;;3.97;3.65;;;-1.80;99.90;;;;;;5091996;28;20205;-63
2024/01/08 08:22:04;;;;;;;4.80;4.32;;;-1.80;99.90;;;;;;5091908;28;20294;-63
2024/01/08 08:24:33;;;;;;;5.13;4.35;;;-1.90;99.90;;;;;;5092255;28;20211;-62
2024/01/08 08:27:00;;;;;;;3.60;3.30;;;-1.90;99.90;;;;;;5091955;28;20208;-62
2024/01/08 08:29:27;;;;;;;3.97;3.67;;;-2.00;99.90;;;;;;5091981;28;20215;-62
2024/01/08 08:31:54;;;;;;;5.35;3.67;;;-1.90;99.90;;;;;;5091916;28;20275;-63
2024/01/08 08:34:20;;;;;;;5.78;5.10;;;-2.00;99.90;;;;;;5091939;28;20586;-62
2024/01/08 08:36:47;;;;;;;8.75;4.28;;;-2.00;99.90;;;;;;5092349;28;20599;-63
2024/01/08 08:39:15;;;;;;;4.28;3.92;;;-2.00;99.90;;;;;;5091586;28;20263;-63
2024/01/08 08:41:43;;;;;;;4.63;4.20;;;-2.00;99.90;;;;;;5091695;28;20788;-63
2024/01/08 08:44:12;;;;;;;5.47;4.90;;;-2.00;99.90;;;;;;5091663;28;20679;-63
2024/01/08 08:46:39;;;;;;;7.00;4.22;;;-2.00;99.90;;;;;;5091764;28;20585;-62
2024/01/08 08:49:06;;;;;;;3.92;3.47;;;-2.10;99.90;;;;;;5091406;28;20207;-63
2024/01/08 08:51:34;;;;;;;5.07;4.25;;;-2.10;99.90;;;;;;5091778;28;20669;-62
2024/01/08 08:54:03;;;;;;;5.18;4.75;;;-2.10;99.90;;;;;;5091300;28;20215;-62
2024/01/08 08:56:30;;;;;;;4.05;3.40;;;-2.20;99.90;;;;;;5091570;28;20209;-63
2024/01/08 08:58:59;;;;;;;5.35;4.85;;;-2.20;99.90;;;;;;5091599;28;20215;-62
2024/01/08 09:01:25;;;;;;;5.25;4.75;;;-2.20;99.90;;;;;;5091431;28;20738;-63
2024/01/08 09:03:53;;;;;;;7.05;5.63;;;-2.30;99.90;;;;;;5091741;28;20299;-62
2024/01/08 09:06:23;;;;;;;5.13;4.38;;;-2.30;99.90;;;;;;5082167;28;20212;-62
2024/01/08 09:08:50;;;;;;;4.05;3.75;;;-2.30;99.90;;;;;;5072223;28;20702;-62
2024/01/08 09:11:16;;;;;;;5.78;4.25;;;-2.30;99.90;;;;;;5090097;28;20937;-63
2024/01/08 09:13:43;;;;;;;5.05;4.45;;;-2.30;99.90;;;;;;5087835;28;20292;-61
2024/01/08 09:16:12;;;;;;;5.22;4.72;;;-2.30;99.90;;;;;;5083299;28;20292;-62
2024/01/08 09:18:39;;;;;;;7.68;4.40;;;-2.30;99.90;;;;;;5085067;28;20291;-62
2024/01/08 09:21:08;;;;;;;5.50;4.50;;;-2.30;99.90;;;;;;5087173;28;20217;-61
2024/01/08 09:23:35;;;;;;;6.07;5.35;;;-2.30;99.90;;;;;;5086062;28;20309;-62
2024/01/08 09:26:04;;;;;;;4.78;3.85;;;-2.30;99.90;;;;;;5089904;28;20201;-63
2024/01/08 09:28:30;;;;;;;5.38;4.00;;;-2.40;99.90;;;;;;5090191;28;20236;-63
2024/01/08 09:30:57;;;;;;;5.30;4.07;;;-2.40;99.90;;;;;;5084237;28;20236;-62
2024/01/08 09:33:26;;;;;;;7.93;4.95;;;-2.50;99.90;;;;;;5089465;28;20296;-63
2024/01/08 09:35:52;;;;;;;5.78;4.20;;;-2.50;99.90;;;;;;5086099;28;20208;-62
2024/01/08 09:38:19;;;;;;;4.15;3.72;;;-2.40;99.90;;;;;;5083939;28;20208;-62
2024/01/08 09:40:48;;;;;;;4.43;3.72;;;-2.50;99.90;;;;;;5078231;28;20212;-62
2024/01/08 09:43:15;;;;;;;6.20;4.03;;;-2.50;99.90;;;;;;5084970;28;20205;-61
2024/01/08 09:45:58;;;;;;;8.20;4.75;;;-2.50;99.90;;;;;;5082657;28;20205;-62
2024/01/08 09:48:26;;;;;;;3.72;3.20;;;-2.50;99.90;;;;;;5082812;28;20288;-62
2024/01/08 09:50:53;;;;;;;7.47;4.65;;;-2.50;99.90;;;;;;5079775;28;20317;-62
2024/01/08 09:53:21;;;;;;;7.72;4.82;;;-2.50;99.90;;;;;;5076532;28;20202;-62
2024/01/08 09:55:50;;;;;;;8.75;5.82;;;-2.60;99.90;;;;;;5084367;28;20643;-62
2024/01/08 09:58:16;;;;;;;4.07;3.72;;;-2.60;99.90;;;;;;5081944;28;20262;-62
2024/01/08 10:00:43;;;;;;;7.53;5.95;;;-2.50;99.90;;;;;;5088254;28;20254;-63
2024/01/08 10:03:11;;;;;;;7.82;5.88;;;-2.50;99.90;;;;;;5079988;28;20571;-62
2024/01/08 10:05:40;;;;;;;4.55;4.00;;;-2.50;99.90;;;;;;5082774;28;20205;-63
2024/01/08 10:08:07;;;;;;;7.93;4.95;;;-2.50;99.90;;;;;;5092615;28;20216;-62
2024/01/08 10:10:34;;;;;;;5.07;4.50;;;-2.40;99.90;;;;;;5092080;28;20855;-62
2024/01/08 10:13:02;;;;;;;6.57;5.90;;;-2.40;99.90;;;;;;5085012;28;20221;-63
2024/01/08 10:15:29;;;;;;;6.80;4.55;;;-2.40;99.90;;;;;;5093552;28;20201;-62
2024/01/08 10:17:59;;;;;;;4.68;4.28;;;-2.40;99.90;;;;;;5087433;28;20251;-63
2024/01/08 10:20:27;;;;;;;6.05;4.38;;;-2.40;99.90;;;;;;5093150;28;20577;-63
2024/01/08 10:23:06;;;;;;;5.68;5.03;;;-2.40;99.90;;;;;;5092995;28;20228;-62
2024/01/08 10:25:34;;;;;;;7.97;5.13;;;-2.40;99.90;;;;;;5086596;28;20652;-63
2024/01/08 10:28:01;;;;;;;6.78;4.85;;;-2.30;99.90;;;;;;5082060;28;20301;-62
2024/01/08 10:30:28;;;;;;;7.68;4.95;;;-2.30;99.90;;;;;;5094725;28;20232;-63
2024/01/08 10:32:58;;;;;;;6.28;5.68;;;-2.30;99.70;;;;;;5084109;28;20217;-63
2024/01/08 10:35:26;;;;;;;5.43;4.90;;;-2.20;99.80;;;;;;5092244;28;20296;-63
2024/01/08 10:37:54;;;;;;;5.45;4.95;;;-2.20;99.90;;;;;;5081000;28;20631;-63
2024/01/08 10:40:22;;;;;;;5.50;4.32;;;-2.20;99.90;;;;;;5084044;28;20578;-63
2024/01/08 10:42:50;;;;;;;4.85;4.00;;;-2.20;99.30;;;;;;5081301;28;20742;-62
2024/01/08 10:45:17;;;;;;;8.05;5.85;;;-2.10;99.90;;;;;;5084827;28;20612;-62
2024/01/08 10:47:57;;;;;;;11.38;4.65;;;-1.90;99.90;;;;;;5093190;28;20211;-63
2024/01/08 10:50:26;;;;;;;6.85;5.13;;;-1.80;99.60;;;;;;5076736;28;20201;-63
2024/01/08 10:52:56;;;;;;;14.65;6.57;;;-1.60;99.90;;;;;;5090923;28;20316;-63
2024/01/08 10:55:24;;;;;;;10.60;5.40;;;-1.50;99.30;;;;;;5093412;28;20208;-63
2024/01/08 10:58:03;;;;;;;9.57;5.60;;;-1.40;99.40;;;;;;5080528;28;20201;-63
2024/01/08 11:00:31;;;;;;;6.05;5.45;;;-1.30;99.70;;;;;;5086372;28;20215;-62
2024/01/08 11:02:59;;;;;;;8.55;5.05;;;-1.20;99.30;;;;;;5087106;28;20221;-63
2024/01/08 11:05:28;;;;;;;5.97;5.07;;;-1.00;99.60;;;;;;5079009;28;20230;-64
2024/01/08 11:07:55;;;;;;;5.60;5.10;;;-0.80;99.30;;;;;;5092861;28;20209;-63
2024/01/08 11:10:24;;;;;;;10.05;8.10;;;-0.80;99.30;;;;;;5092571;28;20579;-63
2024/01/08 11:12:55;;;;;;;7.93;5.85;;;-0.70;98.90;;;;;;5092628;28;20305;-63
2024/01/08 11:15:25;;;;;;;7.78;5.85;;;-0.60;99.00;;;;;;5089988;28;20212;-63
2024/01/08 11:17:53;;;;;;;7.70;6.90;;;-0.60;98.70;;;;;;5078096;28;20220;-63
2024/01/08 11:20:42;;;;;;;7.38;5.57;;;-0.60;98.70;;;;;;5091054;28;20212;-63
2024/01/08 11:23:36;;;;;;;6.38;5.55;;;-0.80;98.00;;;;;;5087408;28;20927;-63
2024/01/08 11:26:10;;;;;;;17.27;6.90;;;-0.80;97.90;;;;;;5082260;28;20208;-62
2024/01/08 11:28:39;;;;;;;9.10;7.05;;;-1.00;98.20;;;;;;5085969;28;20291;-64
2024/01/08 11:31:50;;;;;;;7.57;6.80;;;-1.00;98.20;;;;;;5090391;28;20672;-63
2024/01/08 11:34:55;;;;;;;8.25;6.10;;;-1.00;98.80;;;;;;5065109;28;20205;-63
2024/01/08 11:37:33;;;;;;;8.10;6.88;;;-1.10;98.60;;;;;;5082630;28;20200;-64
2024/01/08 11:40:03;;;;;;;11.85;7.65;;;-1.10;98.30;;;;;;5091271;28;20205;-63
2024/01/08 11:42:32;;;;;;;6.70;6.05;;;-1.20;98.80;;;;;;5090343;28;20228;-63
2024/01/08 11:45:01;;;;;;;7.18;5.78;;;-1.10;99.10;;;;;;5078894;28;20209;-63
2024/01/08 11:47:30;;;;;;;9.75;6.07;;;-1.20;98.70;;;;;;5084078;28;20640;-63
2024/01/08 11:49:57;;;;;;;7.57;5.57;;;-1.10;99.00;;;;;;5091006;28;20697;-63
2024/01/08 11:52:26;;;;;;;7.93;7.32;;;-1.10;98.60;;;;;;5090858;28;20225;-62
2024/01/08 11:54:54;;;;;;;7.15;6.55;;;-1.10;98.30;;;;;;5091454;28;20690;-63
2024/01/08 11:57:21;;;;;;;7.50;6.43;;;-1.00;98.30;;;;;;5091358;28;20722;-63
2024/01/08 11:59:50;;;;;;;8.10;5.55;;;-1.00;98.40;;;;;;5081125;28;20676;-63
2024/01/08 12:02:18;;;;;;;9.32;7.07;;;-1.00;98.40;;;;;;5084625;28;20231;-63
2024/01/08 12:04:53;;;;;;;8.10;6.82;;;-0.90;98.80;;;;;;5091345;28;20197;-63
2024/01/08 12:07:21;;;;;;;8.57;6.22;;;-0.90;98.20;;;;;;5091298;28;20751;-62
2024/01/08 12:09:49;;;;;;;8.77;6.75;;;-0.80;98.70;;;;;;5090890;28;20215;-62
2024/01/08 12:12:17;;;;;;;10.18;6.55;;;-0.80;98.90;;;;;;5090834;28;20691;-63
2024/01/08 12:14:45;;;;;;;7.82;7.05;;;-0.70;98.40;;;;;;5091230;28;20663;-64
2024/01/08 12:17:15;;;;;;;9.35;7.45;;;-0.60;98.40;;;;;;5091335;28;20203;-63
2024/01/08 12:19:45;;;;;;;9.68;6.40;;;-0.50;99.10;;;;;;5086832;28;20197;-64
2024/01/08 12:22:13;;;;;;;6.80;5.82;;;-0.30;99.10;;;;;;5086559;28;20213;-63
2024/01/08 12:24:41;;;;;;;7.03;5.40;;;0.10;98.30;;;;;;5087226;28;20215;-63
2024/01/08 12:27:09;;;;;;;8.75;7.25;;;0.30;97.90;;;;;;5090914;28;20229;-63
2024/01/08 12:29:39;;;;;;;6.22;5.63;;;0.60;97.40;;;;;;5087407;28;20213;-63
2024/01/08 12:32:07;;;;;;;8.07;6.88;;;0.90;97.00;;;;;;5075734;28;20239;-63
2024/01/08 12:34:37;;;;;;;8.20;7.35;;;1.30;96.20;;;;;;5090525;28;20202;-64
2024/01/08 12:37:04;;;;;;;10.77;7.18;;;1.60;96.50;;;;;;5091122;28;20212;-64
2024/01/08 12:39:33;;;;;;;10.32;7.43;;;1.90;96.50;;;;;;5090704;28;20270;-64
2024/01/08 12:42:01;;;;;;;8.70;7.07;;;2.30;96.00;;;;;;5077007;28;20296;-63
2024/01/08 12:44:30;;;;;;;7.75;7.05;;;2.60;95.30;;;;;;5084765;28;20208;-64
2024/01/08 12:46:57;;;;;;;8.82;7.63;;;3.00;94.20;;;;;;5077821;28;20229;-63
2024/01/08 12:49:24;;;;;;;8.80;7.95;;;3.30;93.80;;;;;;5084257;28;20212;-64
2024/01/08 12:51:53;;;;;;;7.90;7.10;;;3.50;93.20;;;;;;5078685;28;20698;-64
2024/01/08 12:54:20;;;;;;;8.30;6.75;;;3.60;92.70;;;;;;5090627;28;20209;-64
2024/01/08 12:56:48;;;;;;;9.20;6.55;;;3.80;92.70;;;;;;5090539;28;20209;-64